Time;durP1;ratioP1;P1;durP2;ratioP2;P2;SDS_P1;SDS_P2;PMS_P1;PMS_P2;Temp;Humidity;BMP_temperature;BMP_pressure;BME280_temperature;BME280_humidity;BME280_pressure;Samples;Min_cycle;Max_cycle;Signal;HPM_P1;HPM_P2
2021/09/25 00:01:33;;;;;;;6.07;4.63;;;;;;;;;;6240534;28;20045;-82
2021/09/25 00:04:35;;;;;;;6.90;4.72;;;;;;;;;;6242878;28;20414;-83
2021/09/25 00:07:37;;;;;;;7.30;5.38;;;;;;;;;;6242108;28;20045;-81
2021/09/25 00:10:39;;;;;;;7.38;4.82;;;;;;;;;;6247783;28;20124;-83
2021/09/25 00:13:40;;;;;;;8.13;5.60;;;;;;;;;;6249241;28;20052;-83
2021/09/25 00:16:42;;;;;;;10.10;6.00;;;;;;;;;;6248643;28;20061;-86
2021/09/25 00:19:44;;;;;;;7.50;5.30;;;;;;;;;;6248450;28;20034;-83
2021/09/25 00:22:46;;;;;;;10.15;4.93;;;;;;;;;;6247842;28;20041;-85
2021/09/25 00:25:47;;;;;;;6.90;4.97;;;;;;;;;;6249396;28;20045;-83
2021/09/25 00:28:49;;;;;;;7.80;5.63;;;;;;;;;;6248629;28;20172;-82
2021/09/25 00:31:51;;;;;;;8.32;4.65;;;;;;;;;;6247006;28;20047;-81
2021/09/25 00:34:53;;;;;;;8.82;5.05;;;;;;;;;;6246209;28;20053;-83
2021/09/25 00:37:54;;;;;;;7.82;4.95;;;;;;;;;;6245724;28;20038;-83
2021/09/25 00:40:56;;;;;;;7.35;5.03;;;;;;;;;;6246217;28;20410;-82
2021/09/25 00:44:00;;;;;;;6.00;4.38;;;;;;;;;;6245057;28;20037;-82
2021/09/25 00:47:02;;;;;;;7.85;4.55;;;;;;;;;;6244017;28;20412;-82
2021/09/25 00:50:07;;;;;;;7.90;4.80;;;;;;;;;;6245987;28;20038;-83
2021/09/25 00:53:08;;;;;;;6.57;4.78;;;;;;;;;;6243423;28;20045;-82
2021/09/25 00:56:11;;;;;;;8.73;4.68;;;;;;;;;;6245403;28;20047;-84
2021/09/25 00:59:14;;;;;;;7.10;4.20;;;;;;;;;;6243882;28;20283;-82
2021/09/25 01:02:17;;;;;;;7.07;4.60;;;;;;;;;;6244611;28;20410;-82
2021/09/25 01:05:21;;;;;;;6.15;4.35;;;;;;;;;;6245530;28;20041;-85
2021/09/25 01:08:23;;;;;;;7.93;3.80;;;;;;;;;;6242216;28;20044;-86
2021/09/25 01:11:26;;;;;;;6.93;4.22;;;;;;;;;;6245646;28;20046;-81
2021/09/25 01:14:31;;;;;;;6.45;3.90;;;;;;;;;;6228707;28;20042;-82
2021/09/25 01:17:32;;;;;;;6.53;4.00;;;;;;;;;;6219040;28;20487;-83
2021/09/25 01:20:34;;;;;;;6.53;3.92;;;;;;;;;;6242590;28;20047;-84
2021/09/25 01:23:37;;;;;;;6.63;3.70;;;;;;;;;;6246007;28;20041;-86
2021/09/25 01:26:38;;;;;;;5.57;3.80;;;;;;;;;;6226227;28;20067;-84
2021/09/25 01:29:40;;;;;;;6.47;4.25;;;;;;;;;;6245502;28;20051;-84
2021/09/25 01:32:42;;;;;;;6.35;3.80;;;;;;;;;;6243090;28;20052;-83
2021/09/25 01:35:43;;;;;;;5.45;3.60;;;;;;;;;;6240521;28;20430;-82
2021/09/25 01:38:46;;;;;;;5.55;3.63;;;;;;;;;;6239538;28;20041;-82
2021/09/25 01:41:47;;;;;;;6.85;3.65;;;;;;;;;;6240070;28;20080;-87
2021/09/25 01:44:50;;;;;;;5.55;3.97;;;;;;;;;;6240220;28;20514;-84
2021/09/25 01:47:52;;;;;;;6.15;3.50;;;;;;;;;;6223380;28;20184;-82
2021/09/25 01:50:54;;;;;;;6.90;4.05;;;;;;;;;;6223392;28;20041;-82
2021/09/25 01:53:56;;;;;;;5.97;4.00;;;;;;;;;;6223562;28;20076;-81
2021/09/25 01:56:58;;;;;;;7.80;4.18;;;;;;;;;;6222863;28;20560;-84
2021/09/25 02:00:00;;;;;;;9.77;5.15;;;;;;;;;;6222943;28;20061;-84
2021/09/25 02:03:07;;;;;;;7.07;3.78;;;;;;;;;;6239236;28;20073;-82
2021/09/25 02:06:10;;;;;;;6.45;4.03;;;;;;;;;;6222513;28;20061;-81
2021/09/25 02:09:12;;;;;;;6.55;3.40;;;;;;;;;;6239112;28;20049;-82
2021/09/25 02:12:14;;;;;;;5.97;3.60;;;;;;;;;;6222576;28;20046;-81
2021/09/25 02:15:16;;;;;;;5.47;3.10;;;;;;;;;;6221857;28;20034;-81
2021/09/25 02:18:18;;;;;;;5.43;3.45;;;;;;;;;;6221938;28;20520;-82
2021/09/25 02:21:20;;;;;;;4.45;3.08;;;;;;;;;;6238355;28;20045;-81
2021/09/25 02:24:22;;;;;;;4.47;3.15;;;;;;;;;;6222293;28;20453;-81
2021/09/25 02:27:24;;;;;;;4.20;3.42;;;;;;;;;;6221760;28;20118;-82
2021/09/25 02:30:27;;;;;;;6.68;3.63;;;;;;;;;;6221504;28;20038;-82
2021/09/25 02:33:29;;;;;;;7.28;4.00;;;;;;;;;;6222761;28;20041;-82
2021/09/25 02:36:31;;;;;;;6.28;4.00;;;;;;;;;;6221980;28;20124;-83
2021/09/25 02:39:34;;;;;;;7.30;3.67;;;;;;;;;;6221572;28;20115;-82
2021/09/25 02:42:36;;;;;;;9.77;4.82;;;;;;;;;;6239459;28;20042;-81
2021/09/25 02:45:38;;;;;;;9.88;4.32;;;;;;;;;;6222370;28;20045;-81
2021/09/25 02:48:39;;;;;;;8.95;5.35;;;;;;;;;;6221328;28;20094;-82
2021/09/25 02:51:41;;;;;;;8.65;4.75;;;;;;;;;;6222478;28;20459;-84
2021/09/25 02:54:43;;;;;;;7.03;4.35;;;;;;;;;;6236141;28;20079;-87
2021/09/25 02:57:46;;;;;;;8.27;4.73;;;;;;;;;;6236774;28;20053;-83
2021/09/25 03:00:48;;;;;;;9.60;4.53;;;;;;;;;;6235946;28;20159;-84
2021/09/25 03:03:51;;;;;;;6.93;4.32;;;;;;;;;;6238050;28;20041;-85
2021/09/25 03:06:53;;;;;;;11.10;5.15;;;;;;;;;;6216009;28;20046;-83
2021/09/25 03:09:55;;;;;;;21.55;5.82;;;;;;;;;;6231664;28;20045;-82
2021/09/25 03:12:57;;;;;;;20.67;6.45;;;;;;;;;;6237453;28;20034;-82
2021/09/25 03:16:00;;;;;;;13.07;5.68;;;;;;;;;;6237033;28;20499;-82
2021/09/25 03:19:03;;;;;;;;;;;;;;;;;;6270179;28;20037;-82
2021/09/25 03:22:04;;;;;;;14.65;5.07;;;;;;;;;;6235440;28;20321;-83
2021/09/25 03:25:08;;;;;;;12.02;4.72;;;;;;;;;;6236880;28;20034;-81
2021/09/25 03:28:09;;;;;;;8.45;4.95;;;;;;;;;;6225590;28;20805;-83
2021/09/25 03:31:11;;;;;;;13.75;5.60;;;;;;;;;;6194974;28;20046;-80
2021/09/25 03:34:14;;;;;;;14.70;5.28;;;;;;;;;;6211518;28;20114;-83
2021/09/25 03:37:16;;;;;;;9.45;4.00;;;;;;;;;;6212786;28;20045;-81
2021/09/25 03:40:17;;;;;;;10.43;3.90;;;;;;;;;;6210116;28;20042;-82
2021/09/25 03:43:19;;;;;;;11.50;3.80;;;;;;;;;;6213894;28;20052;-82
2021/09/25 03:46:21;;;;;;;5.55;3.67;;;;;;;;;;6197789;28;20045;-82
2021/09/25 03:49:22;;;;;;;6.78;3.72;;;;;;;;;;6214932;28;20392;-82
2021/09/25 03:52:24;;;;;;;8.68;3.92;;;;;;;;;;6215412;28;20045;-81
2021/09/25 03:55:26;;;;;;;7.13;3.50;;;;;;;;;;6187737;28;20049;-81
2021/09/25 03:58:27;;;;;;;6.55;3.65;;;;;;;;;;6246957;28;20045;-81
2021/09/25 04:01:29;;;;;;;10.20;4.85;;;;;;;;;;6207853;28;20060;-81
2021/09/25 04:04:31;;;;;;;7.07;3.85;;;;;;;;;;6215413;28;20080;-81
2021/09/25 04:07:32;;;;;;;7.95;3.60;;;;;;;;;;6270018;28;20058;-81
2021/09/25 04:10:34;;;;;;;6.95;3.88;;;;;;;;;;6229883;28;20037;-82
2021/09/25 04:13:36;;;;;;;6.75;4.03;;;;;;;;;;6233334;28;20056;-80
2021/09/25 04:16:37;;;;;;;7.70;4.32;;;;;;;;;;6234954;28;20124;-81
2021/09/25 04:19:39;;;;;;;7.35;4.32;;;;;;;;;;6222853;28;20510;-82
2021/09/25 04:22:41;;;;;;;9.15;4.38;;;;;;;;;;6231580;28;20417;-82
2021/09/25 04:25:42;;;;;;;8.15;4.55;;;;;;;;;;6229222;28;20045;-81
2021/09/25 04:28:44;;;;;;;7.65;4.10;;;;;;;;;;6238405;28;20042;-82
2021/09/25 04:31:46;;;;;;;9.60;4.43;;;;;;;;;;6235965;28;20541;-81
2021/09/25 04:34:48;;;;;;;24.63;5.10;;;;;;;;;;6237318;28;20041;-81
2021/09/25 04:37:49;;;;;;;26.83;5.40;;;;;;;;;;6236382;28;20414;-81
2021/09/25 04:40:51;;;;;;;10.18;5.03;;;;;;;;;;6232583;28;20422;-81
2021/09/25 04:43:53;;;;;;;9.68;4.88;;;;;;;;;;6233215;28;20045;-82
2021/09/25 04:46:54;;;;;;;10.65;5.05;;;;;;;;;;6240053;28;20041;-81
2021/09/25 04:49:56;;;;;;;17.02;6.03;;;;;;;;;;6246366;28;20041;-82
2021/09/25 04:53:10;;;;;;;31.13;5.50;;;;;;;;;;6241400;28;20050;-82
2021/09/25 04:56:12;;;;;;;22.70;5.50;;;;;;;;;;6242698;28;20068;-82
2021/09/25 04:59:13;;;;;;;33.72;7.38;;;;;;;;;;6241243;28;20053;-83
2021/09/25 05:02:16;;;;;;;37.85;5.30;;;;;;;;;;6240498;28;20053;-81
2021/09/25 05:05:19;;;;;;;10.82;5.50;;;;;;;;;;6227999;28;20041;-82
2021/09/25 05:08:21;;;;;;;9.82;5.28;;;;;;;;;;6240128;28;20387;-82
2021/09/25 05:11:25;;;;;;;28.60;5.90;;;;;;;;;;6237911;28;20049;-80
2021/09/25 05:14:27;;;;;;;9.60;4.78;;;;;;;;;;6237019;28;20049;-81
2021/09/25 05:17:29;;;;;;;12.60;4.38;;;;;;;;;;6237578;28;20565;-80
2021/09/25 05:20:30;;;;;;;8.88;4.35;;;;;;;;;;6235911;28;20042;-81
2021/09/25 05:23:32;;;;;;;17.58;5.15;;;;;;;;;;6235516;28;20042;-81
2021/09/25 05:26:35;;;;;;;13.52;6.15;;;;;;;;;;6237670;28;20048;-82
2021/09/25 05:29:37;;;;;;;13.57;4.85;;;;;;;;;;6237320;28;20041;-82
2021/09/25 05:32:38;;;;;;;11.02;4.82;;;;;;;;;;6235540;28;20517;-81
2021/09/25 05:35:40;;;;;;;10.80;4.82;;;;;;;;;;6216679;28;20411;-79
2021/09/25 05:38:41;;;;;;;7.47;4.68;;;;;;;;;;6230878;28;20048;-81
2021/09/25 05:41:43;;;;;;;6.13;3.90;;;;;;;;;;6236138;28;20045;-81
2021/09/25 05:44:45;;;;;;;17.60;4.03;;;;;;;;;;6238495;28;20517;-79
2021/09/25 05:47:47;;;;;;;6.20;3.80;;;;;;;;;;6239026;28;20044;-81
2021/09/25 05:50:48;;;;;;;7.28;4.25;;;;;;;;;;6238434;28;20502;-81
2021/09/25 05:53:50;;;;;;;7.95;4.00;;;;;;;;;;6235938;28;20512;-81
2021/09/25 05:56:51;;;;;;;5.38;3.47;;;;;;;;;;6237672;28;20415;-81
2021/09/25 05:59:53;;;;;;;5.20;3.30;;;;;;;;;;6243746;28;20057;-83
2021/09/25 06:02:57;;;;;;;4.07;3.25;;;;;;;;;;6236852;28;20042;-83
2021/09/25 06:05:59;;;;;;;4.70;3.50;;;;;;;;;;6241679;28;20046;-83
2021/09/25 06:09:01;;;;;;;4.57;3.03;;;;;;;;;;6237141;28;20037;-81
2021/09/25 06:12:04;;;;;;;5.78;3.70;;;;;;;;;;6232104;28;20048;-82
2021/09/25 06:15:07;;;;;;;4.35;2.72;;;;;;;;;;6240835;28;20540;-82
2021/09/25 06:18:09;;;;;;;5.00;2.85;;;;;;;;;;6239457;28;20046;-82
2021/09/25 06:21:11;;;;;;;4.85;2.78;;;;;;;;;;6251463;28;20045;-82
2021/09/25 06:24:12;;;;;;;6.07;3.33;;;;;;;;;;6238344;28;20514;-80
2021/09/25 06:27:14;;;;;;;4.45;3.28;;;;;;;;;;6237947;28;20508;-81
2021/09/25 06:30:16;;;;;;;4.82;3.10;;;;;;;;;;6238539;28;20052;-81
2021/09/25 06:33:17;;;;;;;5.68;3.42;;;;;;;;;;6239454;28;20053;-84
2021/09/25 06:36:19;;;;;;;5.55;3.53;;;;;;;;;;6274153;28;20573;-80
2021/09/25 06:39:22;;;;;;;4.35;2.85;;;;;;;;;;6237910;28;20046;-82
2021/09/25 06:42:24;;;;;;;5.07;3.38;;;;;;;;;;6240982;28;20037;-82
2021/09/25 06:45:30;;;;;;;6.10;3.97;;;;;;;;;;6231477;28;20071;-81
2021/09/25 06:48:32;;;;;;;4.72;3.33;;;;;;;;;;6242099;28;20510;-82
2021/09/25 06:51:34;;;;;;;5.63;3.65;;;;;;;;;;6253906;28;20041;-83
2021/09/25 06:54:37;;;;;;;4.38;3.30;;;;;;;;;;6217277;28;20073;-81
2021/09/25 06:57:39;;;;;;;4.53;3.25;;;;;;;;;;6238263;28;20052;-83
2021/09/25 07:00:46;;;;;;;5.43;3.35;;;;;;;;;;6239541;28;20578;-82
2021/09/25 07:03:47;;;;;;;7.32;3.20;;;;;;;;;;6231217;28;20056;-81
2021/09/25 07:06:50;;;;;;;3.40;2.85;;;;;;;;;;6260068;28;20418;-82
2021/09/25 07:09:51;;;;;;;4.13;3.15;;;;;;;;;;6279107;28;20048;-82
2021/09/25 07:12:53;;;;;;;3.65;3.10;;;;;;;;;;6224327;28;20045;-82
2021/09/25 07:15:54;;;;;;;3.25;2.70;;;;;;;;;;6237548;28;20115;-83
2021/09/25 07:18:56;;;;;;;3.33;2.95;;;;;;;;;;6236625;28;20052;-82
2021/09/25 07:21:57;;;;;;;3.55;2.85;;;;;;;;;;6238260;28;20041;-82
2021/09/25 07:24:59;;;;;;;3.53;2.90;;;;;;;;;;6238327;28;20478;-85
2021/09/25 07:28:01;;;;;;;3.55;3.08;;;;;;;;;;6217467;28;20521;-82
2021/09/25 07:31:05;;;;;;;3.47;2.97;;;;;;;;;;6236071;28;20499;-83
2021/09/25 07:34:07;;;;;;;3.53;2.80;;;;;;;;;;6241578;28;20053;-84
2021/09/25 07:37:09;;;;;;;3.60;2.72;;;;;;;;;;6248089;28;20064;-83
2021/09/25 07:40:11;;;;;;;3.25;2.22;;;;;;;;;;6218006;28;20421;-83
2021/09/25 07:43:13;;;;;;;2.88;2.42;;;;;;;;;;6245069;28;20053;-81
2021/09/25 07:46:15;;;;;;;3.55;2.60;;;;;;;;;;6245508;28;20053;-83
2021/09/25 07:49:17;;;;;;;4.03;2.63;;;;;;;;;;6245814;28;20041;-83
2021/09/25 07:52:18;;;;;;;4.68;2.90;;;;;;;;;;6245469;28;20050;-83
2021/09/25 07:55:20;;;;;;;7.35;3.35;;;;;;;;;;6246324;28;20060;-82
2021/09/25 07:58:21;;;;;;;3.40;2.60;;;;;;;;;;6246722;28;20041;-83
2021/09/25 08:01:23;;;;;;;4.68;2.60;;;;;;;;;;6223469;28;20033;-84
2021/09/25 08:04:25;;;;;;;2.85;2.53;;;;;;;;;;6245324;28;20041;-83
2021/09/25 08:07:26;;;;;;;3.60;2.88;;;;;;;;;;6248753;28;20063;-83
2021/09/25 08:10:28;;;;;;;3.60;2.80;;;;;;;;;;6243551;28;20045;-85
2021/09/25 08:13:30;;;;;;;2.90;2.53;;;;;;;;;;6244880;28;20050;-85
2021/09/25 08:16:32;;;;;;;2.95;2.55;;;;;;;;;;6246058;28;20041;-83
2021/09/25 08:19:34;;;;;;;3.50;2.60;;;;;;;;;;6247837;28;20056;-84
2021/09/25 08:22:36;;;;;;;3.20;2.85;;;;;;;;;;6277838;28;20125;-85
2021/09/25 08:25:38;;;;;;;4.03;2.78;;;;;;;;;;6227321;28;20050;-85
2021/09/25 08:28:39;;;;;;;4.88;3.17;;;;;;;;;;6248144;28;20052;-84
2021/09/25 08:31:41;;;;;;;2.50;2.30;;;;;;;;;;6249296;28;20181;-84
2021/09/25 08:34:43;;;;;;;2.88;2.15;;;;;;;;;;6250114;28;20060;-83
2021/09/25 08:37:45;;;;;;;3.42;2.22;;;;;;;;;;6249073;28;20045;-83
2021/09/25 08:40:46;;;;;;;2.92;2.38;;;;;;;;;;6250934;28;20602;-85
2021/09/25 08:43:50;;;;;;;2.72;2.15;;;;;;;;;;6246134;28;20052;-85
2021/09/25 08:46:53;;;;;;;4.75;2.53;;;;;;;;;;6241703;28;20156;-84
2021/09/25 08:49:55;;;;;;;4.13;2.42;;;;;;;;;;6244458;28;20037;-85
2021/09/25 08:52:57;;;;;;;4.68;2.50;;;;;;;;;;6244106;28;20515;-84
2021/09/25 08:55:58;;;;;;;4.75;2.30;;;;;;;;;;6243826;28;20625;-84
2021/09/25 08:59:00;;;;;;;3.92;2.25;;;;;;;;;;6243608;28;20045;-84
2021/09/25 09:02:13;;;;;;;3.03;2.37;;;;;;;;;;6223277;28;20049;-82
2021/09/25 09:05:29;;;;;;;3.58;2.33;;;;;;;;;;6273780;28;20068;-83
2021/09/25 09:08:31;;;;;;;3.47;2.50;;;;;;;;;;6241155;28;20129;-83
2021/09/25 09:11:35;;;;;;;3.80;2.75;;;;;;;;;;6241671;28;20037;-83
2021/09/25 09:14:46;;;;;;;4.65;3.05;;;;;;;;;;6240975;28;20056;-83
2021/09/25 09:17:47;;;;;;;4.22;2.90;;;;;;;;;;6214653;28;20041;-83
2021/09/25 09:21:10;;;;;;;4.03;2.67;;;;;;;;;;6242386;28;20063;-84
2021/09/25 09:24:14;;;;;;;3.95;3.00;;;;;;;;;;6220578;28;20068;-83
2021/09/25 09:27:22;;;;;;;6.63;2.90;;;;;;;;;;6239697;28;20477;-81
2021/09/25 09:30:24;;;;;;;3.15;2.42;;;;;;;;;;6238035;28;20053;-82
2021/09/25 09:33:38;;;;;;;2.97;2.67;;;;;;;;;;6229677;28;20041;-82
2021/09/25 09:36:42;;;;;;;3.15;2.60;;;;;;;;;;6240181;28;20413;-82
2021/09/25 09:39:45;;;;;;;3.15;2.70;;;;;;;;;;6214993;28;20045;-83
2021/09/25 09:42:48;;;;;;;4.93;2.35;;;;;;;;;;6238354;28;20041;-83
2021/09/25 09:45:51;;;;;;;3.15;2.45;;;;;;;;;;6239632;28;20047;-83
2021/09/25 09:48:54;;;;;;;3.83;2.50;;;;;;;;;;6240250;28;20049;-86
2021/09/25 09:51:57;;;;;;;3.65;2.80;;;;;;;;;;6241160;28;20124;-83
2021/09/25 09:54:59;;;;;;;3.83;3.20;;;;;;;;;;6233423;28;20060;-83
2021/09/25 09:58:05;;;;;;;4.33;2.47;;;;;;;;;;6241956;28;20045;-85
2021/09/25 10:01:08;;;;;;;3.88;2.60;;;;;;;;;;6238731;28;20044;-84
2021/09/25 10:04:10;;;;;;;4.57;2.65;;;;;;;;;;6221261;28;20050;-84
2021/09/25 10:07:12;;;;;;;;;;;;;;;;;;6241667;28;20053;-83
2021/09/25 10:10:14;;;;;;;4.28;2.40;;;;;;;;;;6243879;28;19924;-84
2021/09/25 10:13:17;;;;;;;3.55;2.40;;;;;;;;;;6277389;28;20523;-85
2021/09/25 10:16:19;;;;;;;4.32;2.17;;;;;;;;;;6240813;28;20042;-84
2021/09/25 10:19:26;;;;;;;4.10;2.40;;;;;;;;;;6246125;28;20045;-83
2021/09/25 10:22:31;;;;;;;3.40;1.90;;;;;;;;;;6246166;28;20047;-84
2021/09/25 10:25:33;;;;;;;5.25;2.40;;;;;;;;;;6240648;28;20502;-83
2021/09/25 10:28:34;;;;;;;4.37;2.43;;;;;;;;;;6245807;28;20073;-84
2021/09/25 10:31:36;;;;;;;3.47;2.23;;;;;;;;;;6241813;28;20065;-84
2021/09/25 10:34:38;;;;;;;3.70;2.00;;;;;;;;;;6237445;28;20049;-84
2021/09/25 10:37:43;;;;;;;2.70;2.17;;;;;;;;;;6238441;28;20092;-82
2021/09/25 10:41:16;;;;;;;3.75;2.15;;;;;;;;;;6225272;28;20061;-81
2021/09/25 10:44:38;;;;;;;3.05;2.47;;;;;;;;;;6239340;28;20045;-81
2021/09/25 10:47:40;;;;;;;2.83;2.20;;;;;;;;;;6238306;28;20117;-81
2021/09/25 10:50:57;;;;;;;6.30;2.25;;;;;;;;;;6240781;28;20105;-81
2021/09/25 10:54:02;;;;;;;1.95;1.73;;;;;;;;;;6236624;28;20048;-82
2021/09/25 10:57:19;;;;;;;3.47;2.40;;;;;;;;;;6250159;28;20048;-83
2021/09/25 11:00:22;;;;;;;2.72;2.20;;;;;;;;;;6239856;28;20034;-81
2021/09/25 11:03:39;;;;;;;3.35;1.90;;;;;;;;;;6227086;28;20042;-82
2021/09/25 11:06:49;;;;;;;4.38;2.05;;;;;;;;;;6229014;28;20053;-81
2021/09/25 11:09:52;;;;;;;2.65;1.92;;;;;;;;;;6223172;28;20063;-81
2021/09/25 11:12:53;;;;;;;2.22;1.92;;;;;;;;;;6229153;28;20048;-81
2021/09/25 11:16:02;;;;;;;2.17;1.98;;;;;;;;;;6229205;28;20049;-81
2021/09/25 11:19:08;;;;;;;2.38;2.05;;;;;;;;;;6230761;28;20075;-81
2021/09/25 11:22:22;;;;;;;3.03;1.85;;;;;;;;;;6232748;28;20620;-80
2021/09/25 11:25:28;;;;;;;3.10;1.90;;;;;;;;;;6232374;28;20052;-80
2021/09/25 11:28:33;;;;;;;2.38;1.70;;;;;;;;;;6235662;28;20037;-81
2021/09/25 11:31:36;;;;;;;1.83;1.70;;;;;;;;;;6236112;28;20049;-81
2021/09/25 11:34:37;;;;;;;2.95;1.90;;;;;;;;;;6234850;28;20052;-81
2021/09/25 11:37:55;;;;;;;2.90;1.90;;;;;;;;;;6222567;28;20044;-82
2021/09/25 11:40:58;;;;;;;2.30;1.77;;;;;;;;;;6234847;28;20037;-83
2021/09/25 11:44:06;;;;;;;5.35;1.80;;;;;;;;;;6240787;28;20064;-81
2021/09/25 11:47:08;;;;;;;3.15;1.95;;;;;;;;;;6238827;28;20041;-81
2021/09/25 11:50:27;;;;;;;3.25;2.20;;;;;;;;;;6223388;28;20075;-81
2021/09/25 11:53:31;;;;;;;2.90;2.30;;;;;;;;;;6236142;28;20038;-81
2021/09/25 11:56:34;;;;;;;2.72;2.00;;;;;;;;;;6234074;28;20079;-84
2021/09/25 11:59:36;;;;;;;2.58;2.00;;;;;;;;;;6247813;28;20045;-85
2021/09/25 12:02:46;;;;;;;2.95;2.22;;;;;;;;;;6244545;28;20037;-84
2021/09/25 12:05:50;;;;;;;2.42;2.03;;;;;;;;;;6247786;28;20056;-85
2021/09/25 12:08:52;;;;;;;3.55;2.13;;;;;;;;;;6213912;28;20494;-83
2021/09/25 12:11:53;;;;;;;2.60;2.15;;;;;;;;;;6240183;28;20465;-84
2021/09/25 12:14:55;;;;;;;3.22;2.13;;;;;;;;;;6250746;28;20056;-84
2021/09/25 12:18:03;;;;;;;2.85;2.50;;;;;;;;;;6247402;28;20042;-82
2021/09/25 12:21:06;;;;;;;2.53;2.05;;;;;;;;;;6250799;28;20750;-82
2021/09/25 12:24:09;;;;;;;2.65;1.98;;;;;;;;;;6250361;28;20132;-82
2021/09/25 12:27:11;;;;;;;3.10;1.63;;;;;;;;;;6249471;28;20053;-81
2021/09/25 12:30:14;;;;;;;2.63;1.80;;;;;;;;;;6252902;28;20136;-81
2021/09/25 12:33:17;;;;;;;2.67;1.70;;;;;;;;;;6240886;28;20052;-81
2021/09/25 12:36:19;;;;;;;2.58;1.92;;;;;;;;;;6249361;28;20069;-81
2021/09/25 12:39:23;;;;;;;1.70;1.60;;;;;;;;;;6252929;28;20050;-81
2021/09/25 12:42:26;;;;;;;1.83;1.48;;;;;;;;;;6251229;28;20052;-81
2021/09/25 12:45:28;;;;;;;2.03;1.60;;;;;;;;;;6251418;28;20051;-80
2021/09/25 12:48:29;;;;;;;2.55;1.77;;;;;;;;;;6250398;28;20045;-80
2021/09/25 12:51:33;;;;;;;2.53;1.80;;;;;;;;;;6251008;28;20494;-81
2021/09/25 12:54:36;;;;;;;2.25;1.70;;;;;;;;;;6246691;28;20140;-81
2021/09/25 12:57:38;;;;;;;2.83;1.88;;;;;;;;;;6220735;28;20044;-80
2021/09/25 13:00:44;;;;;;;3.13;1.60;;;;;;;;;;6231515;28;20057;-81
2021/09/25 13:03:46;;;;;;;1.75;1.63;;;;;;;;;;6240607;28;20494;-81
2021/09/25 13:06:50;;;;;;;3.65;1.90;;;;;;;;;;6242899;28;20380;-82
2021/09/25 13:09:55;;;;;;;1.80;1.58;;;;;;;;;;6241264;28;20312;-81
2021/09/25 13:12:58;;;;;;;3.25;2.00;;;;;;;;;;6225468;28;20045;-81
2021/09/25 13:16:09;;;;;;;2.88;2.03;;;;;;;;;;6227762;28;20063;-82
2021/09/25 13:19:11;;;;;;;2.33;1.90;;;;;;;;;;6244712;28;20521;-80
2021/09/25 13:22:12;;;;;;;2.47;2.07;;;;;;;;;;6242595;28;20042;-79
2021/09/25 13:25:16;;;;;;;2.13;1.90;;;;;;;;;;6238498;28;20049;-79
2021/09/25 13:28:18;;;;;;;1.95;1.60;;;;;;;;;;6243325;28;20118;-80
2021/09/25 13:31:20;;;;;;;3.40;1.90;;;;;;;;;;6236612;28;20132;-80
2021/09/25 13:34:21;;;;;;;1.90;1.60;;;;;;;;;;6242140;28;20490;-81
2021/09/25 13:37:27;;;;;;;4.40;2.07;;;;;;;;;;6243338;28;20045;-81
2021/09/25 13:40:28;;;;;;;3.30;1.60;;;;;;;;;;6229633;28;20038;-80
2021/09/25 13:43:30;;;;;;;1.77;1.43;;;;;;;;;;6222867;28;20452;-80
2021/09/25 13:46:31;;;;;;;2.67;1.90;;;;;;;;;;6215607;28;20484;-81
2021/09/25 13:49:33;;;;;;;3.38;2.08;;;;;;;;;;6240695;28;20049;-80
2021/09/25 13:52:35;;;;;;;2.28;1.90;;;;;;;;;;6239131;28;20045;-81
2021/09/25 13:55:37;;;;;;;3.93;1.70;;;;;;;;;;6214508;28;20044;-83
2021/09/25 13:58:38;;;;;;;2.20;1.87;;;;;;;;;;6215550;28;20503;-82
2021/09/25 14:01:40;;;;;;;2.27;1.60;;;;;;;;;;6251986;28;20439;-83
2021/09/25 14:04:42;;;;;;;2.85;1.60;;;;;;;;;;6252658;28;20046;-82
2021/09/25 14:07:44;;;;;;;2.43;1.60;;;;;;;;;;6240826;28;20049;-84
2021/09/25 14:10:45;;;;;;;1.70;1.50;;;;;;;;;;6229434;28;20455;-83
2021/09/25 14:13:47;;;;;;;3.47;1.70;;;;;;;;;;6226813;28;20050;-83
2021/09/25 14:16:49;;;;;;;3.33;1.80;;;;;;;;;;6224045;28;20041;-83
2021/09/25 14:19:51;;;;;;;2.33;1.58;;;;;;;;;;6240835;28;20044;-84
2021/09/25 14:22:52;;;;;;;2.03;1.70;;;;;;;;;;6241658;28;20115;-81
2021/09/25 14:25:54;;;;;;;5.35;1.50;;;;;;;;;;6236565;28;20462;-82
2021/09/25 14:28:55;;;;;;;3.37;1.60;;;;;;;;;;6222213;28;20096;-84
2021/09/25 14:32:00;;;;;;;4.17;2.00;;;;;;;;;;6240523;28;20057;-82
2021/09/25 14:35:01;;;;;;;1.65;1.55;;;;;;;;;;6239521;28;20428;-83
2021/09/25 14:38:03;;;;;;;3.15;1.52;;;;;;;;;;6221401;28;20604;-83
2021/09/25 14:41:05;;;;;;;3.17;2.72;;;;;;;;;;6241764;28;20484;-82
2021/09/25 14:44:06;;;;;;;3.10;1.80;;;;;;;;;;6241805;28;20498;-84
2021/09/25 14:47:08;;;;;;;2.23;1.77;;;;;;;;;;6244648;28;20055;-84
2021/09/25 14:50:11;;;;;;;1.98;1.85;;;;;;;;;;6244771;28;20140;-84
2021/09/25 14:53:13;;;;;;;2.25;1.95;;;;;;;;;;6245345;28;20057;-83
2021/09/25 14:56:14;;;;;;;2.25;1.90;;;;;;;;;;6222618;28;20503;-82
2021/09/25 14:59:16;;;;;;;2.80;1.97;;;;;;;;;;6219305;28;20054;-82
2021/09/25 15:02:25;;;;;;;2.42;2.08;;;;;;;;;;6240420;28;20045;-82
2021/09/25 15:05:27;;;;;;;2.38;1.92;;;;;;;;;;6242323;28;20049;-84
2021/09/25 15:08:29;;;;;;;2.45;1.77;;;;;;;;;;6238744;28;20045;-85
2021/09/25 15:11:31;;;;;;;4.23;2.13;;;;;;;;;;6225889;28;20053;-84
2021/09/25 15:14:33;;;;;;;2.20;1.92;;;;;;;;;;6244334;28;20432;-84
2021/09/25 15:17:36;;;;;;;2.07;1.87;;;;;;;;;;6240652;28;20049;-84
2021/09/25 15:20:37;;;;;;;2.47;2.10;;;;;;;;;;6243235;28;20052;-83
2021/09/25 15:23:39;;;;;;;1.90;1.70;;;;;;;;;;6243013;28;20045;-84
2021/09/25 15:26:40;;;;;;;2.97;2.00;;;;;;;;;;6242470;28;20043;-84
2021/09/25 15:29:43;;;;;;;3.80;2.35;;;;;;;;;;6259724;28;20052;-83
2021/09/25 15:32:44;;;;;;;2.20;2.00;;;;;;;;;;6217897;28;20487;-84
2021/09/25 15:35:46;;;;;;;2.33;2.10;;;;;;;;;;6218890;28;20084;-83
2021/09/25 15:38:59;;;;;;;;;;;;;;;;;;6238821;28;21180;-84
2021/09/25 15:42:00;;;;;;;2.22;2.03;;;;;;;;;;6254991;28;19928;-83
2021/09/25 15:45:02;;;;;;;4.90;2.13;;;;;;;;;;6241160;28;20056;-83
2021/09/25 15:48:05;;;;;;;3.00;2.38;;;;;;;;;;6236929;28;20065;-84
2021/09/25 15:51:06;;;;;;;;;;;;;;;;;;6243963;28;20132;-83
2021/09/25 15:54:08;;;;;;;3.58;2.20;;;;;;;;;;6241753;28;20055;-83
2021/09/25 15:57:10;;;;;;;4.70;3.90;;;;;;;;;;6224281;28;20113;-84
2021/09/25 16:00:12;;;;;;;3.35;3.05;;;;;;;;;;6241872;28;20756;-84
2021/09/25 16:03:14;;;;;;;3.15;2.85;;;;;;;;;;6240680;28;20129;-83
2021/09/25 16:06:16;;;;;;;3.78;3.03;;;;;;;;;;6243472;28;20057;-84
2021/09/25 16:09:22;;;;;;;4.20;2.80;;;;;;;;;;6242174;28;20056;-84
2021/09/25 16:12:24;;;;;;;4.60;3.60;;;;;;;;;;6241562;28;20132;-83
2021/09/25 16:15:25;;;;;;;2.97;2.70;;;;;;;;;;6244683;28;20096;-84
2021/09/25 16:18:27;;;;;;;8.43;6.70;;;;;;;;;;6240094;28;20466;-84
2021/09/25 16:21:29;;;;;;;4.45;2.95;;;;;;;;;;6276805;28;20041;-84
2021/09/25 16:24:32;;;;;;;3.17;2.88;;;;;;;;;;6240861;28;20045;-84
2021/09/25 16:27:33;;;;;;;5.15;3.63;;;;;;;;;;6256715;28;20101;-84
2021/09/25 16:30:35;;;;;;;4.13;2.92;;;;;;;;;;6241639;28;20175;-84
2021/09/25 16:33:37;;;;;;;3.67;3.00;;;;;;;;;;6237779;28;20879;-84
2021/09/25 16:36:39;;;;;;;5.40;3.63;;;;;;;;;;6244168;28;20041;-84
2021/09/25 16:39:41;;;;;;;4.93;3.00;;;;;;;;;;6220461;28;20042;-85
2021/09/25 16:42:43;;;;;;;3.38;2.75;;;;;;;;;;6248620;28;20052;-83
2021/09/25 16:45:46;;;;;;;4.20;2.75;;;;;;;;;;6224547;28;20540;-84
2021/09/25 16:48:49;;;;;;;3.45;2.70;;;;;;;;;;6271405;28;20043;-83
2021/09/25 16:51:51;;;;;;;;;;;;;;;;;;6250272;28;20040;-83
2021/09/25 16:54:52;;;;;;;4.88;3.92;;;;;;;;;;6251232;28;19956;-83
2021/09/25 16:57:54;;;;;;;4.32;3.08;;;;;;;;;;6255126;28;20042;-83
2021/09/25 17:00:55;;;;;;;3.85;3.33;;;;;;;;;;6225018;28;20617;-83
2021/09/25 17:03:58;;;;;;;4.57;3.88;;;;;;;;;;6253634;28;20044;-83
2021/09/25 17:06:59;;;;;;;8.90;5.57;;;;;;;;;;6250626;28;20506;-83
2021/09/25 17:10:07;;;;;;;6.63;4.35;;;;;;;;;;6249022;28;20049;-83
2021/09/25 17:13:09;;;;;;;8.30;4.53;;;;;;;;;;6240705;28;20703;-83
2021/09/25 17:16:11;;;;;;;6.95;4.45;;;;;;;;;;6236357;28;20046;-83
2021/09/25 17:19:12;;;;;;;5.10;3.40;;;;;;;;;;6233634;28;20072;-83
2021/09/25 17:22:15;;;;;;;5.20;3.67;;;;;;;;;;6234561;28;20044;-83
2021/09/25 17:25:18;;;;;;;10.82;7.10;;;;;;;;;;6231635;28;20837;-83
2021/09/25 17:28:19;;;;;;;24.27;14.57;;;;;;;;;;6242388;28;20052;-84
2021/09/25 17:31:21;;;;;;;11.13;5.10;;;;;;;;;;6241531;28;20053;-81
2021/09/25 17:34:23;;;;;;;13.95;7.68;;;;;;;;;;6242570;28;20057;-83
2021/09/25 17:37:24;;;;;;;15.57;8.13;;;;;;;;;;6244366;28;20068;-84
2021/09/25 17:40:27;;;;;;;38.72;23.52;;;;;;;;;;6247934;28;20108;-83
2021/09/25 17:43:29;;;;;;;12.20;6.45;;;;;;;;;;6244755;28;20048;-83
2021/09/25 17:46:30;;;;;;;19.80;12.35;;;;;;;;;;6243528;28;20045;-84
2021/09/25 17:49:32;;;;;;;15.98;9.63;;;;;;;;;;6242883;28;20095;-83
2021/09/25 17:52:34;;;;;;;33.42;20.50;;;;;;;;;;6244649;28;20037;-83
2021/09/25 17:55:36;;;;;;;10.65;7.32;;;;;;;;;;6217933;28;20034;-85
2021/09/25 17:58:38;;;;;;;6.95;4.90;;;;;;;;;;6226328;28;20065;-84
2021/09/25 18:01:40;;;;;;;7.82;4.47;;;;;;;;;;6242131;28;20052;-84
2021/09/25 18:04:42;;;;;;;5.70;4.45;;;;;;;;;;6241811;28;20325;-83
2021/09/25 18:07:43;;;;;;;4.55;3.67;;;;;;;;;;6242672;28;20113;-85
2021/09/25 18:10:45;;;;;;;6.35;4.38;;;;;;;;;;6243623;28;20835;-84
2021/09/25 18:13:47;;;;;;;4.78;4.13;;;;;;;;;;6240978;28;20037;-83
2021/09/25 18:16:49;;;;;;;5.65;4.38;;;;;;;;;;6242508;28;20052;-83